createdAt,value
2022-12-05T00:02:21.344Z,36.00
2022-12-05T00:04:47.591Z,38.37
2022-12-05T00:07:13.816Z,38.03
2022-12-05T00:09:41.097Z,40.07
2022-12-05T00:12:07.369Z,40.70
2022-12-05T00:14:33.531Z,45.63
2022-12-05T00:17:00.079Z,37.97
2022-12-05T00:19:26.298Z,35.53
2022-12-05T00:21:52.612Z,41.30
2022-12-05T00:24:19.404Z,41.60
2022-12-05T00:26:46.274Z,44.40
2022-12-05T00:29:12.701Z,38.77
2022-12-05T00:31:39.119Z,40.47
2022-12-05T00:34:05.408Z,37.17
2022-12-05T00:36:32.997Z,39.73
2022-12-05T00:39:00.376Z,46.00
2022-12-05T00:41:28.108Z,39.90
2022-12-05T00:43:59.486Z,40.47
2022-12-05T00:46:27.224Z,42.00
2022-12-05T00:48:54.319Z,43.57
2022-12-05T00:51:22.587Z,41.40
2022-12-05T00:53:49.492Z,43.90
2022-12-05T00:56:18.799Z,41.40
2022-12-05T00:58:45.912Z,42.70
2022-12-05T01:01:14.662Z,43.70
2022-12-05T01:03:41.894Z,40.37
2022-12-05T01:06:08.675Z,42.77
2022-12-05T01:08:35.660Z,45.10
2022-12-05T01:11:02.513Z,42.87
2022-12-05T01:13:28.702Z,41.20
2022-12-05T01:15:54.994Z,40.93
2022-12-05T01:18:22.855Z,40.43
2022-12-05T01:20:49.288Z,38.73
2022-12-05T01:23:15.820Z,41.50
2022-12-05T01:25:43.343Z,36.57
2022-12-05T01:28:09.822Z,41.57
2022-12-05T01:30:37.558Z,47.47
2022-12-05T01:33:03.732Z,37.63
2022-12-05T01:35:32.442Z,45.33
2022-12-05T01:37:58.604Z,38.50
2022-12-05T01:40:25.124Z,43.70
2022-12-05T01:42:51.286Z,43.63
2022-12-05T01:45:20.855Z,46.43
2022-12-05T01:47:47.103Z,44.03
2022-12-05T01:50:13.554Z,37.13
2022-12-05T01:52:40.503Z,43.27
2022-12-05T01:55:11.911Z,38.33
2022-12-05T01:57:38.235Z,37.20
2022-12-05T02:00:09.555Z,36.37
2022-12-05T02:02:35.917Z,40.10
2022-12-05T02:05:05.670Z,37.60
2022-12-05T02:07:32.497Z,39.27
2022-12-05T02:09:59.718Z,46.73
2022-12-05T02:12:26.117Z,35.60
2022-12-05T02:15:03.480Z,38.33
2022-12-05T02:17:37.480Z,36.73
2022-12-05T02:20:13.192Z,39.20
2022-12-05T02:23:18.983Z,42.37
2022-12-05T02:26:00.689Z,38.07
2022-12-05T02:28:43.879Z,38.03
2022-12-05T02:31:15.033Z,37.57
2022-12-05T02:33:46.054Z,34.77
2022-12-05T02:36:15.728Z,33.90
2022-12-05T02:38:47.673Z,40.23
2022-12-05T02:41:19.614Z,39.50
2022-12-05T02:43:49.687Z,40.97
2022-12-05T02:46:18.790Z,45.23
2022-12-05T02:48:46.445Z,40.40
2022-12-05T02:51:14.681Z,42.83
2022-12-05T02:53:42.036Z,43.00
2022-12-05T02:56:08.283Z,43.80
2022-12-05T02:58:38.839Z,40.90
2022-12-05T03:01:05.751Z,41.33
2022-12-05T03:03:33.016Z,41.50
2022-12-05T03:06:03.085Z,42.10
2022-12-05T03:08:31.914Z,48.77
2022-12-05T03:10:58.821Z,39.80
2022-12-05T03:13:27.560Z,42.20
2022-12-05T03:15:57.116Z,43.70
2022-12-05T03:18:25.562Z,41.33
2022-12-05T03:20:57.411Z,42.63
2022-12-05T03:23:25.259Z,44.13
2022-12-05T03:25:55.342Z,38.87
2022-12-05T03:28:24.719Z,45.53
2022-12-05T03:30:53.350Z,45.43
2022-12-05T03:33:23.307Z,39.60
2022-12-05T03:35:56.847Z,41.47
2022-12-05T03:38:26.097Z,41.67
2022-12-05T03:40:56.307Z,44.23
2022-12-05T03:43:28.455Z,43.47
2022-12-05T03:45:58.452Z,46.90
2022-12-05T03:48:29.156Z,44.50
2022-12-05T03:50:56.624Z,46.17
2022-12-05T03:53:25.638Z,46.97
2022-12-05T03:55:57.635Z,42.40
2022-12-05T03:58:27.611Z,44.60
2022-12-05T04:00:54.045Z,39.47
2022-12-05T04:03:23.867Z,42.33
2022-12-05T04:05:53.776Z,39.97
2022-12-05T04:08:23.519Z,46.30
2022-12-05T04:10:51.113Z,36.60
2022-12-05T04:13:35.203Z,40.20
2022-12-05T04:16:22.563Z,42.77
2022-12-05T04:18:52.735Z,43.77
2022-12-05T04:21:37.352Z,42.43
2022-12-05T04:24:24.249Z,42.20
2022-12-05T04:26:56.503Z,43.43
2022-12-05T04:29:28.821Z,43.43
2022-12-05T04:31:59.934Z,38.83
2022-12-05T04:34:27.690Z,42.97
2022-12-05T04:36:56.827Z,40.43
2022-12-05T04:39:27.098Z,41.93
2022-12-05T04:41:55.972Z,39.00
2022-12-05T04:44:25.504Z,38.80
2022-12-05T04:46:53.061Z,40.80
2022-12-05T04:49:21.417Z,40.50
2022-12-05T04:51:49.859Z,41.30
2022-12-05T04:54:19.628Z,37.63
2022-12-05T04:56:48.572Z,36.57
2022-12-05T04:59:14.767Z,33.83
2022-12-05T05:01:42.890Z,32.03
2022-12-05T05:04:12.739Z,32.73
2022-12-05T05:06:40.344Z,35.00
2022-12-05T05:09:06.865Z,36.87
2022-12-05T05:11:34.714Z,33.47
2022-12-05T05:14:02.027Z,34.37
2022-12-05T05:16:32.937Z,34.50
2022-12-05T05:18:59.540Z,32.50
2022-12-05T05:21:27.700Z,22.07
2022-12-05T05:23:54.357Z,39.93
2022-12-05T05:26:21.384Z,31.87
2022-12-05T05:28:48.455Z,29.77
2022-12-05T05:31:17.974Z,31.03
2022-12-05T05:33:47.227Z,30.90
2022-12-05T05:36:14.210Z,32.07
2022-12-05T05:38:42.010Z,32.97
2022-12-05T05:41:12.794Z,35.33
2022-12-05T05:43:39.615Z,32.33
2022-12-05T05:46:05.883Z,34.43
2022-12-05T05:48:33.212Z,30.67
2022-12-05T05:50:59.495Z,32.40
2022-12-05T05:53:25.635Z,37.50
2022-12-05T05:55:51.821Z,34.97
2022-12-05T05:58:17.943Z,32.50
2022-12-05T06:00:44.120Z,30.33
2022-12-05T06:03:10.664Z,33.87
2022-12-05T06:05:37.515Z,33.73
2022-12-05T06:08:04.296Z,33.23
2022-12-05T06:10:30.493Z,33.70
2022-12-05T06:12:57.094Z,33.17
2022-12-05T06:15:23.467Z,33.20
2022-12-05T06:17:49.840Z,31.13
2022-12-05T06:20:16.308Z,31.30
2022-12-05T06:22:43.089Z,31.07
2022-12-05T06:25:10.363Z,33.10
2022-12-05T06:27:37.330Z,37.23
2022-12-05T06:30:04.967Z,30.73
2022-12-05T06:32:31.217Z,29.00
2022-12-05T06:34:57.494Z,28.93
2022-12-05T06:37:23.674Z,30.83
2022-12-05T06:39:51.620Z,28.73
2022-12-05T06:42:17.843Z,31.43
2022-12-05T06:44:44.152Z,30.37
2022-12-05T06:47:10.352Z,30.07
2022-12-05T06:49:38.206Z,35.67
2022-12-05T06:52:04.779Z,29.73
2022-12-05T06:54:30.932Z,33.50
2022-12-05T06:56:57.705Z,30.67
2022-12-05T06:59:24.106Z,27.97
2022-12-05T07:01:50.639Z,30.67
2022-12-05T07:04:19.888Z,32.77
2022-12-05T07:06:50.863Z,31.90
2022-12-05T07:09:18.526Z,35.03
2022-12-05T07:11:46.315Z,32.07
2022-12-05T07:14:31.207Z,34.83
2022-12-05T07:16:59.471Z,31.47
2022-12-05T07:19:25.689Z,34.47
2022-12-05T07:21:51.816Z,33.40
2022-12-05T07:24:17.991Z,31.03
2022-12-05T07:26:44.131Z,34.03
2022-12-05T07:29:10.341Z,32.47
2022-12-05T07:31:37.178Z,29.33
2022-12-05T07:34:03.478Z,30.77
2022-12-05T07:36:29.736Z,28.20
2022-12-05T07:38:56.929Z,32.20
2022-12-05T07:41:24.445Z,31.80
2022-12-05T07:43:50.843Z,32.97
2022-12-05T07:46:17.104Z,31.43
2022-12-05T07:48:44.121Z,28.60
2022-12-05T07:51:10.487Z,30.43
2022-12-05T07:53:37.187Z,36.07
2022-12-05T07:56:05.457Z,32.63
2022-12-05T07:58:32.602Z,37.73
2022-12-05T08:01:05.929Z,32.60
2022-12-05T08:03:32.186Z,32.80
2022-12-05T08:06:01.989Z,33.77
2022-12-05T08:08:28.166Z,33.67
2022-12-05T08:10:54.274Z,35.47
2022-12-05T08:13:20.444Z,39.80
2022-12-05T08:15:46.567Z,34.10
2022-12-05T08:18:12.734Z,32.17
2022-12-05T08:20:38.855Z,34.23
2022-12-05T08:23:05.657Z,35.63
2022-12-05T08:25:31.831Z,30.90
2022-12-05T08:27:57.991Z,32.23
2022-12-05T08:30:24.239Z,34.87
2022-12-05T08:32:50.485Z,35.17
2022-12-05T08:35:16.831Z,35.80
2022-12-05T08:37:42.976Z,31.73
2022-12-05T08:40:10.970Z,28.67
2022-12-05T08:42:37.135Z,29.50
2022-12-05T08:45:03.727Z,34.10
2022-12-05T08:47:32.226Z,32.30
2022-12-05T08:49:59.077Z,28.23
2022-12-05T08:52:25.466Z,29.90
2022-12-05T08:54:51.601Z,26.83
2022-12-05T08:57:18.438Z,29.90
2022-12-05T08:59:44.573Z,26.90
2022-12-05T09:02:11.112Z,27.33
2022-12-05T09:04:37.315Z,27.60
2022-12-05T09:07:03.589Z,28.70
2022-12-05T09:09:31.800Z,27.07
2022-12-05T09:11:59.423Z,28.80
2022-12-05T09:14:31.930Z,28.33
2022-12-05T09:16:59.429Z,29.30
2022-12-05T09:19:26.817Z,27.13
2022-12-05T09:21:53.619Z,30.07
2022-12-05T09:24:19.808Z,28.40
2022-12-05T09:26:46.554Z,28.77
2022-12-05T09:29:16.712Z,28.20
2022-12-05T09:31:45.466Z,27.97
2022-12-05T09:34:13.266Z,28.03
2022-12-05T09:36:39.423Z,28.93
2022-12-05T09:39:06.335Z,25.13
2022-12-05T09:42:07.218Z,26.93
2022-12-05T09:44:50.906Z,28.27
2022-12-05T09:47:28.051Z,26.93
2022-12-05T09:49:57.309Z,26.17
2022-12-05T09:52:26.924Z,30.20
2022-12-05T09:54:53.706Z,25.70
2022-12-05T09:57:32.050Z,27.30
2022-12-05T10:00:00.438Z,24.97
2022-12-05T10:02:33.253Z,25.13
2022-12-05T10:05:03.948Z,24.23
2022-12-05T10:07:34.651Z,27.83
2022-12-05T10:10:19.759Z,23.60
2022-12-05T10:12:54.310Z,26.03
2022-12-05T10:15:30.715Z,28.03
2022-12-05T10:18:00.203Z,28.13
2022-12-05T10:20:28.550Z,23.43
2022-12-05T10:22:56.658Z,24.97
2022-12-05T10:25:26.103Z,23.90
2022-12-05T10:27:53.968Z,23.67
2022-12-05T10:30:21.981Z,26.03
2022-12-05T10:32:54.779Z,24.13
2022-12-05T10:35:23.421Z,22.97
2022-12-05T10:37:51.444Z,22.27
2022-12-05T10:40:17.949Z,24.03
2022-12-05T10:42:44.311Z,23.97
2022-12-05T10:45:17.122Z,23.00
2022-12-05T10:47:43.779Z,23.07
2022-12-05T10:50:22.253Z,24.43
2022-12-05T10:52:48.609Z,21.83
2022-12-05T10:55:17.434Z,25.17
2022-12-05T10:57:49.067Z,21.70
2022-12-05T11:00:19.331Z,22.07
2022-12-05T11:02:49.839Z,24.20
2022-12-05T11:05:28.011Z,23.67
2022-12-05T11:07:54.645Z,21.90
2022-12-05T11:10:26.970Z,22.90
2022-12-05T11:12:55.375Z,20.73
2022-12-05T11:15:24.593Z,22.83
2022-12-05T11:17:51.787Z,23.67
2022-12-05T11:20:37.578Z,20.90
2022-12-05T11:23:17.323Z,20.53
2022-12-05T11:25:46.337Z,26.03
2022-12-05T11:28:33.624Z,22.10
2022-12-05T11:31:02.204Z,21.27
2022-12-05T11:33:29.576Z,21.20
2022-12-05T11:36:01.248Z,20.57
2022-12-05T11:38:31.477Z,19.00
2022-12-05T11:41:04.657Z,20.93
2022-12-05T11:43:53.149Z,18.33
2022-12-05T11:46:26.988Z,18.63
2022-12-05T11:49:10.961Z,20.63
2022-12-05T11:51:40.246Z,21.73
2022-12-05T11:55:03.427Z,21.03
2022-12-05T11:57:33.958Z,19.43
2022-12-05T12:00:17.828Z,17.20
2022-12-05T12:03:01.022Z,16.13
2022-12-05T12:05:35.482Z,17.10
2022-12-05T12:08:09.222Z,19.10
2022-12-05T12:10:42.115Z,18.93
2022-12-05T12:13:19.490Z,17.87
2022-12-05T12:15:59.634Z,16.47
2022-12-05T12:18:49.187Z,16.13
2022-12-05T12:21:16.982Z,18.10
2022-12-05T12:23:51.852Z,19.03
2022-12-05T12:26:26.606Z,16.33
2022-12-05T12:29:07.389Z,18.07
2022-12-05T12:31:48.692Z,14.23
2022-12-05T12:34:29.198Z,16.37
2022-12-05T12:37:03.776Z,14.27
2022-12-05T12:39:40.171Z,14.73
2022-12-05T12:42:17.362Z,15.13
2022-12-05T12:45:06.137Z,14.23
2022-12-05T12:47:40.789Z,15.03
2022-12-05T12:50:14.008Z,13.63
2022-12-05T12:52:50.591Z,14.93
2022-12-05T12:55:22.026Z,15.77
2022-12-05T12:57:58.920Z,18.33
2022-12-05T13:00:34.135Z,13.80
2022-12-05T13:03:04.750Z,15.90
2022-12-05T13:05:33.975Z,19.47
2022-12-05T13:08:04.027Z,15.97
2022-12-05T13:10:35.073Z,15.73
2022-12-05T13:13:03.051Z,15.23
2022-12-05T13:15:34.378Z,16.20
2022-12-05T13:18:01.789Z,15.90
2022-12-05T13:20:32.384Z,21.80
2022-12-05T13:23:03.109Z,19.17
2022-12-05T13:25:34.539Z,19.30
2022-12-05T13:28:03.883Z,15.90
2022-12-05T13:30:30.371Z,17.20
2022-12-05T13:32:58.216Z,16.30
2022-12-05T13:35:48.816Z,16.60
2022-12-05T13:38:38.886Z,15.87
2022-12-05T13:41:24.218Z,15.50
2022-12-05T13:44:05.446Z,17.33
2022-12-05T13:46:34.129Z,16.37
2022-12-05T13:49:07.037Z,16.07
2022-12-05T13:51:35.833Z,16.63
2022-12-05T13:54:05.992Z,16.17
2022-12-05T13:56:48.243Z,13.27
2022-12-05T13:59:48.095Z,16.50
2022-12-05T14:02:47.926Z,12.63
2022-12-05T14:05:34.921Z,16.30
2022-12-05T14:08:45.023Z,13.67
2022-12-05T14:11:11.571Z,12.30
2022-12-05T14:13:44.799Z,12.27
2022-12-05T14:16:46.813Z,13.17
2022-12-05T14:19:50.651Z,12.10
2022-12-05T14:22:26.594Z,14.53
2022-12-05T14:24:57.586Z,15.50
2022-12-05T14:27:41.915Z,11.97
2022-12-05T14:30:20.068Z,13.83
2022-12-05T14:32:46.699Z,13.37
2022-12-05T14:35:14.787Z,13.70
2022-12-05T14:37:46.909Z,16.27
2022-12-05T14:40:20.367Z,13.63
2022-12-05T14:42:52.371Z,11.90
2022-12-05T14:45:26.194Z,14.17
2022-12-05T14:47:54.797Z,14.93
2022-12-05T14:50:32.704Z,16.13
2022-12-05T14:53:18.874Z,12.03
2022-12-05T14:55:46.041Z,16.00
2022-12-05T14:58:16.873Z,14.57
2022-12-05T15:00:48.073Z,13.83
2022-12-05T15:03:19.807Z,13.60
2022-12-05T15:05:46.859Z,15.07
2022-12-05T15:08:14.466Z,16.80
2022-12-05T15:10:42.216Z,15.50
2022-12-05T15:13:12.697Z,15.10
2022-12-05T15:15:43.489Z,14.17
2022-12-05T15:18:18.213Z,14.23
2022-12-05T15:20:49.235Z,15.40
2022-12-05T15:23:40.776Z,13.40
2022-12-05T15:26:44.874Z,14.43
2022-12-05T15:29:06.087Z,12.97
2022-12-05T15:31:34.849Z,12.30
2022-12-05T15:34:05.155Z,13.57
2022-12-05T15:36:35.246Z,15.80
2022-12-05T15:39:04.048Z,12.43
2022-12-05T15:41:30.195Z,12.80
2022-12-05T15:43:57.548Z,12.87
2022-12-05T15:46:26.608Z,12.50
2022-12-05T15:48:55.231Z,14.53
2022-12-05T15:51:24.682Z,16.83
2022-12-05T15:53:52.213Z,13.27
2022-12-05T15:56:20.671Z,14.47
2022-12-05T15:58:49.122Z,14.50
2022-12-05T16:01:17.018Z,15.47
2022-12-05T16:03:47.470Z,19.43
2022-12-05T16:06:16.923Z,13.23
2022-12-05T16:08:44.014Z,15.60
2022-12-05T16:11:10.985Z,16.43
2022-12-05T16:13:42.263Z,15.43
2022-12-05T16:16:10.840Z,16.70
2022-12-05T16:18:37.215Z,17.10
2022-12-05T16:21:03.596Z,15.90
2022-12-05T16:23:32.564Z,15.80
2022-12-05T16:26:19.307Z,17.87
2022-12-05T16:28:56.627Z,14.57
2022-12-05T16:31:22.947Z,17.17
2022-12-05T16:33:59.531Z,16.10
2022-12-05T16:36:25.721Z,16.20
2022-12-05T16:39:00.033Z,15.83
2022-12-05T16:41:35.493Z,15.67
2022-12-05T16:44:07.311Z,18.43
2022-12-05T16:46:46.413Z,18.27
2022-12-05T16:49:34.849Z,18.87
2022-12-05T16:52:03.423Z,18.10
2022-12-05T16:54:30.275Z,18.27
2022-12-05T16:56:56.740Z,15.90
2022-12-05T16:59:31.801Z,22.27
2022-12-05T17:01:58.021Z,19.60
2022-12-05T17:04:24.290Z,20.47
2022-12-05T17:06:50.511Z,18.43
2022-12-05T17:09:16.663Z,17.00
2022-12-05T17:11:44.710Z,16.40
2022-12-05T17:14:13.507Z,15.80
2022-12-05T17:16:39.983Z,17.77
2022-12-05T17:19:06.209Z,19.53
2022-12-05T17:21:33.487Z,20.10
2022-12-05T17:23:59.818Z,20.47
2022-12-05T17:26:26.178Z,21.20
2022-12-05T17:28:53.023Z,28.60
2022-12-05T17:31:20.614Z,24.77
2022-12-05T17:33:47.803Z,22.83
2022-12-05T17:36:14.491Z,18.47
2022-12-05T17:38:40.750Z,23.77
2022-12-05T17:41:07.480Z,17.83
2022-12-05T17:43:33.752Z,19.97
2022-12-05T17:46:02.793Z,21.83
2022-12-05T17:48:29.192Z,17.97
2022-12-05T17:50:56.904Z,18.37
2022-12-05T17:53:23.122Z,15.77
2022-12-05T17:55:49.714Z,17.27
2022-12-05T17:58:16.688Z,21.03
2022-12-05T18:00:44.030Z,23.47
2022-12-05T18:03:13.212Z,16.87
2022-12-05T18:05:39.432Z,21.47
2022-12-05T18:08:05.753Z,18.53
2022-12-05T18:10:32.131Z,26.37
2022-12-05T18:12:58.325Z,21.33
2022-12-05T18:15:24.585Z,20.77
2022-12-05T18:17:50.858Z,20.17
2022-12-05T18:20:17.963Z,22.73
2022-12-05T18:22:44.211Z,23.60
2022-12-05T18:25:10.786Z,22.07
2022-12-05T18:27:37.573Z,22.07
2022-12-05T18:30:04.914Z,24.17
2022-12-05T18:32:31.199Z,22.17
2022-12-05T18:35:01.183Z,21.40
2022-12-05T18:37:28.226Z,22.37
2022-12-05T18:39:55.559Z,19.07
2022-12-05T18:42:21.812Z,24.93
2022-12-05T18:44:48.734Z,23.00
2022-12-05T18:47:15.149Z,20.13
2022-12-05T18:49:41.426Z,18.63
2022-12-05T18:52:07.578Z,20.67
2022-12-05T18:54:34.438Z,19.57
2022-12-05T18:57:00.588Z,19.67
2022-12-05T18:59:27.848Z,18.17
2022-12-05T19:01:54.407Z,18.10
2022-12-05T19:04:20.806Z,17.13
2022-12-05T19:06:50.338Z,20.17
2022-12-05T19:09:18.649Z,16.67
2022-12-05T19:11:47.939Z,17.60
2022-12-05T19:14:15.741Z,15.40
2022-12-05T19:16:42.157Z,15.07
2022-12-05T19:19:10.596Z,17.37
2022-12-05T19:21:36.856Z,17.70
2022-12-05T19:24:06.451Z,17.17
2022-12-05T19:26:33.094Z,15.33
2022-12-05T19:29:00.340Z,19.13
2022-12-05T19:31:28.290Z,17.37
2022-12-05T19:34:00.401Z,20.97
2022-12-05T19:36:28.412Z,16.43
2022-12-05T19:38:55.477Z,20.97
2022-12-05T19:41:23.711Z,22.33
2022-12-05T19:43:49.977Z,24.07
2022-12-05T19:46:18.978Z,18.17
2022-12-05T19:48:46.218Z,15.67
2022-12-05T19:51:12.568Z,17.67
2022-12-05T19:53:40.863Z,17.53
2022-12-05T19:56:09.507Z,19.27
2022-12-05T19:58:36.512Z,22.00
2022-12-05T20:01:09.713Z,20.30
2022-12-05T20:03:37.822Z,18.73
2022-12-05T20:06:04.858Z,21.10
2022-12-05T20:08:31.787Z,21.73
2022-12-05T20:11:04.496Z,22.40
2022-12-05T20:13:47.717Z,20.60
2022-12-05T20:16:17.481Z,20.10
2022-12-05T20:18:44.292Z,18.03
2022-12-05T20:21:12.501Z,20.40
2022-12-05T20:23:39.096Z,16.13
2022-12-05T20:26:07.208Z,24.03
2022-12-05T20:28:34.578Z,19.07
2022-12-05T20:31:05.488Z,19.40
2022-12-05T20:33:31.807Z,19.90
2022-12-05T20:36:01.499Z,20.73
2022-12-05T20:38:27.737Z,21.60
2022-12-05T20:40:58.350Z,18.63
2022-12-05T20:43:24.540Z,18.43
2022-12-05T20:45:50.769Z,18.83
2022-12-05T20:48:16.954Z,22.37
2022-12-05T20:50:43.129Z,18.67
2022-12-05T20:53:09.903Z,20.67
2022-12-05T20:55:36.055Z,19.00
2022-12-05T20:58:05.043Z,23.67
2022-12-05T21:00:31.533Z,22.80
2022-12-05T21:02:57.759Z,19.97
2022-12-05T21:05:23.925Z,24.20
2022-12-05T21:07:50.118Z,28.70
2022-12-05T21:10:17.043Z,20.97
2022-12-05T21:12:43.222Z,22.13
2022-12-05T21:15:10.557Z,23.27
2022-12-05T21:17:37.264Z,26.10
2022-12-05T21:20:04.398Z,24.33
2022-12-05T21:22:30.649Z,18.00
2022-12-05T21:24:56.751Z,21.47
2022-12-05T21:27:23.510Z,20.17
2022-12-05T21:29:49.615Z,19.37
2022-12-05T21:32:15.816Z,22.70
2022-12-05T21:34:42.077Z,19.03
2022-12-05T21:37:08.246Z,22.03
2022-12-05T21:39:34.680Z,19.50
2022-12-05T21:42:00.793Z,21.47
2022-12-05T21:44:27.555Z,20.80
2022-12-05T21:46:55.062Z,17.60
2022-12-05T21:49:21.726Z,21.57
2022-12-05T21:51:47.888Z,24.87
2022-12-05T21:54:14.077Z,26.83
2022-12-05T21:56:41.247Z,26.63
2022-12-05T21:59:07.521Z,33.33
2022-12-05T22:01:34.348Z,24.87
2022-12-05T22:04:00.921Z,28.83
2022-12-05T22:06:27.859Z,23.77
2022-12-05T22:08:54.626Z,24.07
2022-12-05T22:11:21.954Z,23.47
2022-12-05T22:13:48.610Z,24.70
2022-12-05T22:16:15.760Z,20.57
2022-12-05T22:18:42.711Z,22.73
2022-12-05T22:21:12.044Z,21.03
2022-12-05T22:23:38.414Z,24.27
2022-12-05T22:26:06.701Z,23.57
2022-12-05T22:28:33.564Z,23.37
2022-12-05T22:31:02.401Z,23.10
2022-12-05T22:33:29.300Z,20.90
2022-12-05T22:35:57.347Z,25.90
2022-12-05T22:38:23.580Z,23.87
2022-12-05T22:40:53.340Z,23.33
2022-12-05T22:43:19.578Z,26.80
2022-12-05T22:45:45.759Z,25.57
2022-12-05T22:48:11.938Z,27.70
2022-12-05T22:50:38.354Z,26.60
2022-12-05T22:53:05.150Z,27.87
2022-12-05T22:55:31.555Z,28.00
2022-12-05T22:57:57.712Z,24.90
2022-12-05T23:00:24.219Z,31.83
2022-12-05T23:02:52.350Z,24.63
2022-12-05T23:05:18.588Z,25.27
2022-12-05T23:07:44.829Z,23.53
2022-12-05T23:10:11.952Z,29.57
2022-12-05T23:12:38.243Z,21.97
2022-12-05T23:15:05.217Z,22.50
2022-12-05T23:17:31.403Z,22.37
2022-12-05T23:19:58.656Z,25.90
2022-12-05T23:22:25.185Z,25.37
2022-12-05T23:24:51.354Z,24.60
2022-12-05T23:27:18.162Z,23.17
2022-12-05T23:29:44.419Z,21.37
2022-12-05T23:32:10.675Z,21.80
2022-12-05T23:34:36.925Z,23.90
2022-12-05T23:37:03.463Z,19.87
2022-12-05T23:39:29.735Z,28.00
2022-12-05T23:41:55.937Z,21.70
2022-12-05T23:44:22.933Z,21.93
2022-12-05T23:46:49.195Z,20.53
2022-12-05T23:49:15.398Z,21.53
2022-12-05T23:51:41.612Z,24.63
2022-12-05T23:54:09.921Z,21.57
2022-12-05T23:56:36.600Z,21.17
2022-12-05T23:59:05.278Z,23.53
